Time;durP1;ratioP1;P1;durP2;ratioP2;P2;SDS_P1;SDS_P2;PMS_P1;PMS_P2;Temp;Humidity;BMP_temperature;BMP_pressure;BME280_temperature;BME280_humidity;BME280_pressure;Samples;Min_cycle;Max_cycle;Signal;HPM_P1;HPM_P2
2023/12/27 00:01:41;;;;;;;2.50;0.83;;;;;;;4.83;85.82;99508.75;4230474;28;20246;-72
2023/12/27 00:04:07;;;;;;;3.87;0.90;;;;;;;4.88;84.97;99503.84;4228769;28;20384;-72
2023/12/27 00:06:34;;;;;;;1.13;0.50;;;;;;;4.88;83.73;99507.38;4232645;28;22519;-74
2023/12/27 00:09:02;;;;;;;3.17;0.50;;;;;;;4.92;83.27;99516.84;4242423;28;20229;-73
2023/12/27 00:11:29;;;;;;;1.23;0.53;;;;;;;4.85;83.92;99526.41;4247186;28;20325;-74
2023/12/27 00:13:56;;;;;;;3.70;0.60;;;;;;;4.90;83.42;99520.66;4219597;28;21367;-73
2023/12/27 00:16:22;;;;;;;1.80;0.60;;;;;;;4.84;83.69;99531.91;4236518;28;21549;-73
2023/12/27 00:18:49;;;;;;;1.57;0.63;;;;;;;4.85;83.58;99541.66;4236761;28;20574;-74
2023/12/27 00:21:16;;;;;;;3.50;0.97;;;;;;;4.92;83.63;99542.84;4230614;28;20250;-72
2023/12/27 00:23:42;;;;;;;2.60;0.60;;;;;;;4.92;83.85;99541.00;4235725;28;20254;-76
2023/12/27 00:26:09;;;;;;;3.23;0.90;;;;;;;4.85;84.06;99541.66;4240082;28;20258;-72
2023/12/27 00:28:35;;;;;;;2.97;0.80;;;;;;;4.81;84.44;99561.66;4229442;28;20660;-73
2023/12/27 00:31:02;;;;;;;3.20;0.43;;;;;;;4.81;84.18;99551.81;4234804;28;20276;-72
2023/12/27 00:33:29;;;;;;;1.70;0.60;;;;;;;4.86;83.73;99557.63;4237465;28;20292;-73
2023/12/27 00:35:56;;;;;;;1.80;0.60;;;;;;;4.93;82.29;99571.34;4242156;28;20964;-74
2023/12/27 00:38:23;;;;;;;1.53;0.87;;;;;;;4.88;80.83;99578.94;4252461;28;20416;-74
2023/12/27 00:40:49;;;;;;;2.37;1.00;;;;;;;4.89;80.37;99588.69;4236542;28;20230;-74
2023/12/27 00:43:16;;;;;;;2.50;0.90;;;;;;;4.83;79.10;99597.25;4229363;28;20559;-74
2023/12/27 00:45:42;;;;;;;0.00;0.00;;;;;;;4.74;78.88;99583.66;4236551;28;20237;-74
2023/12/27 00:48:09;;;;;;;1.27;0.53;;;;;;;4.84;76.64;99572.16;4252895;28;20234;-74
2023/12/27 00:50:35;;;;;;;0.43;0.20;;;;;;;4.80;75.26;99608.22;4233084;28;20272;-74
2023/12/27 00:53:03;;;;;;;1.63;0.60;;;;;;;4.78;75.54;99605.69;4238348;28;20756;-73
2023/12/27 00:55:31;;;;;;;0.00;0.00;;;;;;;4.81;75.45;99617.97;4237789;28;20529;-75
2023/12/27 00:57:57;;;;;;;0.23;0.10;;;;;;;4.82;75.70;99622.38;4238289;28;20404;-73
2023/12/27 01:00:24;;;;;;;0.67;0.20;;;;;;;4.84;76.58;99615.06;4225267;28;20234;-72
2023/12/27 01:02:51;;;;;;;0.10;0.10;;;;;;;4.71;77.32;99615.25;4231968;28;20398;-72
2023/12/27 01:05:18;;;;;;;1.40;0.40;;;;;;;4.57;78.86;99625.31;4239759;28;20231;-74
2023/12/27 01:07:44;;;;;;;1.67;1.57;;;;;;;4.64;78.67;99622.97;4242715;28;20253;-73
2023/12/27 01:10:11;;;;;;;0.00;0.00;;;;;;;4.68;79.03;99631.59;4234797;28;20360;-74
2023/12/27 01:12:38;;;;;;;0.40;0.40;;;;;;;4.56;80.08;99644.19;4232381;28;20275;-73
2023/12/27 01:15:05;;;;;;;0.37;0.17;;;;;;;4.60;80.46;99653.69;4242201;28;20234;-73
2023/12/27 01:17:32;;;;;;;0.63;0.10;;;;;;;4.69;77.82;99639.50;4242972;28;20238;-73
2023/12/27 01:19:58;;;;;;;0.00;0.00;;;;;;;4.78;78.62;99650.44;4234611;28;20234;-73
2023/12/27 01:22:25;;;;;;;0.77;0.40;;;;;;;4.75;79.73;99660.44;4229683;28;22094;-73
2023/12/27 01:24:52;;;;;;;0.10;0.10;;;;;;;4.69;80.30;99660.09;4243507;28;22101;-73
2023/12/27 01:27:18;;;;;;;0.23;0.23;;;;;;;4.67;79.61;99656.69;4239180;28;20246;-73
2023/12/27 01:29:45;;;;;;;0.30;0.20;;;;;;;4.74;78.75;99685.53;4227600;28;20237;-74
2023/12/27 01:32:12;;;;;;;0.47;0.23;;;;;;;4.64;77.45;99678.41;4238118;28;20238;-74
2023/12/27 01:34:38;;;;;;;0.10;0.10;;;;;;;4.68;77.31;99672.66;4234728;28;20230;-73
2023/12/27 01:37:05;;;;;;;0.00;0.00;;;;;;;4.71;77.89;99676.91;4238813;28;21316;-72
2023/12/27 01:39:32;;;;;;;0.13;0.10;;;;;;;4.73;77.63;99672.28;4241166;28;20858;-73
2023/12/27 01:41:58;;;;;;;2.43;0.27;;;;;;;4.74;77.17;99669.44;4232292;28;20239;-74
2023/12/27 01:44:25;;;;;;;1.47;0.60;;;;;;;4.68;76.53;99679.84;4244965;28;21294;-73
2023/12/27 01:46:51;;;;;;;3.30;2.63;;;;;;;4.72;76.89;99679.44;4229717;28;20457;-73
2023/12/27 01:49:18;;;;;;;0.30;0.10;;;;;;;4.69;77.28;99692.25;4230064;28;22119;-74
2023/12/27 01:51:45;;;;;;;2.70;0.40;;;;;;;4.62;77.16;99693.75;4254060;28;20234;-74
2023/12/27 01:54:14;;;;;;;0.30;0.13;;;;;;;4.57;77.46;99689.63;4245190;28;20235;-74
2023/12/27 01:56:44;;;;;;;0.83;0.10;;;;;;;4.60;78.09;99696.56;4232655;28;20239;-73
2023/12/27 01:59:12;;;;;;;2.37;0.90;;;;;;;4.62;78.46;99704.47;4241316;28;20241;-73
2023/12/27 02:01:39;;;;;;;0.40;0.20;;;;;;;4.60;78.88;99702.78;4256336;28;20270;-71
2023/12/27 02:04:05;;;;;;;0.70;0.40;;;;;;;4.67;79.78;99715.69;4233885;28;20227;-72
2023/12/27 02:06:33;;;;;;;6.27;0.80;;;;;;;4.44;82.67;99713.06;4236042;28;23055;-74
2023/12/27 02:09:00;;;;;;;0.00;0.00;;;;;;;4.44;83.73;99705.88;4236438;28;20238;-73
2023/12/27 02:11:26;;;;;;;4.30;1.00;;;;;;;4.34;84.39;99701.41;4240256;28;21651;-74
2023/12/27 02:13:53;;;;;;;3.00;0.90;;;;;;;4.24;84.74;99710.19;4241543;28;22164;-73
2023/12/27 02:16:21;;;;;;;4.20;0.90;;;;;;;4.25;84.48;99711.03;4234887;28;20235;-74
2023/12/27 02:18:48;;;;;;;2.20;1.03;;;;;;;4.23;84.33;99715.66;4221021;28;22587;-73
2023/12/27 02:21:16;;;;;;;2.23;0.90;;;;;;;4.25;83.95;99714.56;4240527;28;20222;-74
2023/12/27 02:23:45;;;;;;;3.07;1.10;;;;;;;4.11;83.19;99726.41;4241076;28;26248;-73
2023/12/27 02:26:12;;;;;;;2.80;1.00;;;;;;;4.20;82.34;99735.53;4231192;28;20242;-75
2023/12/27 02:28:39;;;;;;;3.63;0.83;;;;;;;4.25;81.96;99729.81;4236964;28;20230;-73
2023/12/27 02:31:06;;;;;;;1.10;0.77;;;;;;;4.18;81.27;99729.44;4237683;28;22245;-74
2023/12/27 02:33:32;;;;;;;2.33;0.83;;;;;;;4.00;81.98;99753.19;4233488;28;20231;-74
2023/12/27 02:35:59;;;;;;;1.53;1.00;;;;;;;3.96;80.79;99735.69;4226554;28;21382;-73
2023/12/27 02:38:26;;;;;;;2.50;1.00;;;;;;;4.06;80.53;99744.66;4232740;28;20222;-73
2023/12/27 02:40:53;;;;;;;3.57;1.10;;;;;;;3.89;80.32;99758.56;4236966;28;20242;-74
2023/12/27 02:43:20;;;;;;;1.87;0.80;;;;;;;3.81;80.74;99751.94;4242515;28;22766;-75
2023/12/27 02:45:46;;;;;;;2.27;1.00;;;;;;;3.77;81.00;99755.84;4230268;28;20235;-73
2023/12/27 02:48:13;;;;;;;5.90;1.30;;;;;;;3.85;79.20;99755.28;4240814;28;20290;-73
2023/12/27 02:50:44;;;;;;;3.43;1.00;;;;;;;3.85;79.31;99765.97;4221617;28;20998;-72
2023/12/27 02:53:11;;;;;;;4.53;1.00;;;;;;;3.86;79.52;99762.31;4235352;28;22267;-72
2023/12/27 02:55:38;;;;;;;3.03;0.80;;;;;;;3.73;79.71;99758.91;4230146;28;20235;-71
2023/12/27 02:58:04;;;;;;;1.70;0.87;;;;;;;3.64;79.95;99774.69;4238364;28;20231;-74
2023/12/27 03:00:35;;;;;;;4.90;1.00;;;;;;;3.71;79.50;99780.44;4238819;28;20228;-74
2023/12/27 03:03:02;;;;;;;6.70;1.33;;;;;;;3.64;79.43;99787.25;4236684;28;23795;-74
2023/12/27 03:05:30;;;;;;;3.60;0.93;;;;;;;3.61;79.58;99780.31;4231857;28;20239;-74
2023/12/27 03:07:56;;;;;;;5.87;1.20;;;;;;;3.48;80.95;99776.84;4229539;28;22897;-73
2023/12/27 03:10:24;;;;;;;4.63;1.10;;;;;;;3.40;81.43;99782.81;4242580;28;20730;-71
2023/12/27 03:12:50;;;;;;;6.40;1.20;;;;;;;3.33;82.15;99770.88;4238257;28;20352;-73
2023/12/27 03:15:17;;;;;;;3.63;1.30;;;;;;;3.24;82.51;99777.78;4231375;28;20243;-74
2023/12/27 03:17:43;;;;;;;5.80;1.07;;;;;;;3.22;82.40;99769.00;4232757;28;20345;-75
2023/12/27 03:20:11;;;;;;;5.40;1.20;;;;;;;3.08;83.61;99775.41;4238862;28;21572;-76
2023/12/27 03:22:38;;;;;;;2.80;0.80;;;;;;;3.02;83.92;99781.22;4233902;28;20247;-74
2023/12/27 03:25:04;;;;;;;3.53;0.97;;;;;;;2.87;84.31;99780.53;4229171;28;22943;-73
2023/12/27 03:27:31;;;;;;;4.23;1.03;;;;;;;2.95;83.70;99791.50;4228896;28;20230;-77
2023/12/27 03:29:58;;;;;;;4.50;1.13;;;;;;;3.01;83.42;99795.53;4240682;28;25549;-75
2023/12/27 03:32:24;;;;;;;7.57;1.30;;;;;;;2.94;83.20;99795.16;4231857;28;20234;-73
2023/12/27 03:34:51;;;;;;;5.70;1.10;;;;;;;2.78;84.09;99798.09;4231145;28;20285;-73
2023/12/27 03:37:17;;;;;;;6.00;1.33;;;;;;;2.85;84.27;99798.53;4243546;28;20231;-75
2023/12/27 03:39:44;;;;;;;4.23;1.20;;;;;;;2.81;84.51;99810.38;4240940;28;21240;-73
2023/12/27 03:42:12;;;;;;;4.50;1.20;;;;;;;2.93;84.49;99817.53;4232512;28;20231;-73
2023/12/27 03:44:39;;;;;;;7.20;1.50;;;;;;;2.82;85.20;99807.63;4229387;28;20630;-74
2023/12/27 03:47:05;;;;;;;2.57;0.97;;;;;;;2.77;85.98;99815.09;4236467;28;20238;-74
2023/12/27 03:49:32;;;;;;;5.17;1.23;;;;;;;2.79;86.54;99823.88;4235412;28;20602;-73
2023/12/27 03:51:59;;;;;;;3.00;0.93;;;;;;;2.71;87.29;99828.94;4236905;28;20242;-73
2023/12/27 03:54:25;;;;;;;5.63;1.27;;;;;;;2.75;87.43;99824.22;4237763;28;20234;-74
2023/12/27 03:56:52;;;;;;;5.37;1.13;;;;;;;2.75;88.07;99834.91;4234071;28;22023;-73
2023/12/27 03:59:18;;;;;;;7.17;1.30;;;;;;;2.67;88.44;99839.00;4240007;28;26500;-72
2023/12/27 04:01:45;;;;;;;6.47;1.57;;;;;;;2.65;88.54;99835.56;4237287;28;20366;-74
2023/12/27 04:04:13;;;;;;;4.20;0.80;;;;;;;2.57;89.29;99839.75;4228691;28;20317;-74
2023/12/27 04:06:40;;;;;;;4.17;0.80;;;;;;;2.53;89.71;99839.13;4242122;28;20238;-73
2023/12/27 04:09:07;;;;;;;5.10;1.30;;;;;;;2.46;90.13;99843.22;4239780;28;21229;-73
2023/12/27 04:11:41;;;;;;;5.33;0.97;;;;;;;2.50;89.96;99845.56;4236329;28;20283;-74
2023/12/27 04:14:08;;;;;;;5.33;0.60;;;;;;;2.55;90.07;99855.91;4230447;28;21317;-72
2023/12/27 04:16:35;;;;;;;2.83;0.70;;;;;;;2.47;90.38;99853.78;4238473;28;20242;-74
2023/12/27 04:19:02;;;;;;;3.53;0.70;;;;;;;2.52;90.53;99854.31;4233356;28;22720;-74
2023/12/27 04:21:29;;;;;;;5.70;1.03;;;;;;;2.55;90.59;99871.94;4234272;28;22771;-74
2023/12/27 04:23:55;;;;;;;2.87;0.80;;;;;;;2.52;90.84;99864.13;4237130;28;20227;-74
2023/12/27 04:26:22;;;;;;;2.53;0.60;;;;;;;2.60;90.00;99872.47;4236073;28;20245;-73
2023/12/27 04:28:48;;;;;;;7.33;1.13;;;;;;;2.58;90.21;99863.69;4233430;28;20276;-73
2023/12/27 04:31:15;;;;;;;11.03;1.20;;;;;;;2.65;90.12;99872.97;4239910;28;20739;-74
2023/12/27 04:33:42;;;;;;;9.70;1.33;;;;;;;2.72;89.25;99873.41;4240379;28;22200;-72
2023/12/27 04:36:08;;;;;;;5.03;1.30;;;;;;;2.71;89.32;99873.53;4237366;28;20245;-74
2023/12/27 04:38:35;;;;;;;6.20;1.10;;;;;;;2.83;88.09;99883.31;4231958;28;20231;-74
2023/12/27 04:41:08;;;;;;;4.47;0.97;;;;;;;2.91;88.01;99896.97;4236058;28;20230;-73
2023/12/27 04:43:35;;;;;;;5.17;0.80;;;;;;;2.89;87.76;99901.56;4232889;28;21390;-74
2023/12/27 04:46:06;;;;;;;4.83;1.00;;;;;;;2.91;86.85;99896.13;4236164;28;20309;-75
2023/12/27 04:48:33;;;;;;;5.20;0.80;;;;;;;2.94;86.96;99901.25;4231028;28;20425;-73
2023/12/27 04:51:00;;;;;;;5.30;1.00;;;;;;;2.94;87.08;99911.94;4216518;28;20979;-73
2023/12/27 04:53:27;;;;;;;6.30;1.00;;;;;;;3.00;86.75;99912.34;4236893;28;20250;-74
2023/12/27 04:55:53;;;;;;;4.53;1.03;;;;;;;2.91;87.54;99904.16;4235495;28;20241;-74
2023/12/27 04:58:20;;;;;;;4.03;1.00;;;;;;;2.90;87.79;99913.13;4232258;28;20239;-73
2023/12/27 05:00:47;;;;;;;7.00;1.07;;;;;;;2.92;87.37;99919.22;4229267;28;20270;-73
2023/12/27 05:03:14;;;;;;;4.77;0.93;;;;;;;2.95;86.98;99924.34;4236269;28;20281;-72
2023/12/27 05:05:40;;;;;;;6.27;1.07;;;;;;;2.93;87.45;99919.13;4234968;28;20234;-75
2023/12/27 05:08:07;;;;;;;6.50;1.13;;;;;;;2.85;88.23;99918.81;4224449;28;20370;-74
2023/12/27 05:10:34;;;;;;;9.67;1.43;;;;;;;2.84;88.50;99923.28;4215759;28;20299;-74
2023/12/27 05:13:00;;;;;;;9.17;1.37;;;;;;;2.87;88.37;99927.56;4233080;28;20231;-73
2023/12/27 05:15:27;;;;;;;9.03;1.20;;;;;;;2.91;87.99;99939.75;4240744;28;20304;-74
2023/12/27 05:17:53;;;;;;;5.73;1.00;;;;;;;3.02;88.04;99944.31;4237689;28;21088;-73
2023/12/27 05:20:21;;;;;;;8.33;1.60;;;;;;;2.94;88.26;99949.38;4240216;28;20378;-74
2023/12/27 05:22:47;;;;;;;9.73;1.67;;;;;;;2.94;88.31;99944.91;4246987;28;20282;-73
2023/12/27 05:25:14;;;;;;;7.23;1.07;;;;;;;2.95;88.51;99946.56;4252673;28;20244;-72
2023/12/27 05:27:40;;;;;;;6.27;1.33;;;;;;;2.97;87.98;99951.84;4242183;28;20239;-74
2023/12/27 05:30:09;;;;;;;9.77;1.03;;;;;;;2.98;88.15;99959.75;4249458;28;20227;-74
2023/12/27 05:32:36;;;;;;;10.30;1.37;;;;;;;3.01;88.10;99972.91;4253717;28;26919;-73
2023/12/27 05:35:03;;;;;;;4.13;1.20;;;;;;;3.03;87.83;99962.09;4242788;28;21718;-73
2023/12/27 05:37:30;;;;;;;4.23;1.27;;;;;;;3.01;87.75;99958.66;4241491;28;20239;-73
2023/12/27 05:39:56;;;;;;;6.87;1.30;;;;;;;3.04;87.63;99970.94;4241551;28;22714;-72
2023/12/27 05:42:24;;;;;;;6.70;1.10;;;;;;;3.08;87.62;99965.28;4242473;28;20235;-73
2023/12/27 05:44:50;;;;;;;10.20;1.37;;;;;;;3.00;87.82;99975.66;4232010;28;21513;-74
2023/12/27 05:47:17;;;;;;;7.83;1.67;;;;;;;3.00;87.59;99981.00;4228116;28;20242;-73
2023/12/27 05:49:44;;;;;;;3.20;1.33;;;;;;;3.11;87.02;99986.44;4236745;28;20237;-74
2023/12/27 05:52:10;;;;;;;10.60;1.47;;;;;;;3.05;87.54;99988.69;4244157;28;21539;-72
2023/12/27 05:54:37;;;;;;;4.30;1.03;;;;;;;3.02;87.69;100003.16;4244400;28;20835;-75
2023/12/27 05:57:04;;;;;;;9.60;1.90;;;;;;;3.03;87.86;100010.22;4243329;28;21738;-72
2023/12/27 05:59:30;;;;;;;6.63;1.50;;;;;;;3.11;87.10;100021.22;4241373;28;22034;-74
2023/12/27 06:01:57;;;;;;;5.93;1.57;;;;;;;3.08;87.30;100013.41;4245091;28;20463;-72
2023/12/27 06:04:23;;;;;;;5.03;1.30;;;;;;;3.11;87.00;100026.56;4244175;28;23710;-73
2023/12/27 06:06:50;;;;;;;7.63;1.33;;;;;;;3.06;87.31;100031.38;4240230;28;20382;-74
2023/12/27 06:09:17;;;;;;;9.57;1.37;;;;;;;3.02;87.30;100027.22;4242641;28;20293;-73
2023/12/27 06:11:44;;;;;;;5.40;1.43;;;;;;;3.09;86.99;100025.81;4249435;28;26092;-74
2023/12/27 06:14:12;;;;;;;8.93;1.40;;;;;;;3.06;87.10;100023.34;4247667;28;21574;-73
2023/12/27 06:16:38;;;;;;;10.00;1.67;;;;;;;3.04;87.15;100032.44;4236221;28;20314;-73
2023/12/27 06:19:05;;;;;;;3.90;1.50;;;;;;;2.93;88.04;100027.88;4238867;28;20234;-73
2023/12/27 06:21:32;;;;;;;9.80;1.50;;;;;;;2.93;88.03;100026.06;4240546;28;22452;-73
2023/12/27 06:23:58;;;;;;;6.83;1.73;;;;;;;2.89;88.29;100031.72;4243424;28;22105;-74
2023/12/27 06:26:25;;;;;;;9.07;1.73;;;;;;;2.91;88.10;100036.00;4229695;28;20235;-74
2023/12/27 06:28:51;;;;;;;6.27;1.50;;;;;;;2.89;88.33;100053.13;4239334;28;20296;-73
2023/12/27 06:31:18;;;;;;;6.50;1.13;;;;;;;2.85;88.63;100052.47;4246390;28;20249;-73
2023/12/27 06:33:45;;;;;;;6.97;1.37;;;;;;;2.84;88.94;100067.66;4240443;28;22122;-74
2023/12/27 06:36:12;;;;;;;6.47;1.37;;;;;;;2.75;89.62;100062.97;4249597;28;21866;-73
2023/12/27 06:38:40;;;;;;;4.67;1.30;;;;;;;2.73;89.93;100062.22;4237514;28;20397;-73
2023/12/27 06:41:08;;;;;;;3.77;1.37;;;;;;;2.71;89.90;100077.47;4240516;28;23069;-74
2023/12/27 06:43:34;;;;;;;6.67;1.50;;;;;;;2.70;89.47;100078.44;4252078;28;20242;-74
2023/12/27 06:46:01;;;;;;;7.07;1.70;;;;;;;2.58;90.32;100098.00;4236009;28;21681;-72
2023/12/27 06:48:28;;;;;;;12.97;1.77;;;;;;;2.54;90.83;100108.03;4232261;28;21403;-75
2023/12/27 06:50:56;;;;;;;7.93;1.80;;;;;;;2.59;90.26;100102.38;4243631;28;21152;-75
2023/12/27 06:53:22;;;;;;;10.20;1.40;;;;;;;2.49;90.95;100108.34;4248970;28;22260;-76
2023/12/27 06:55:49;;;;;;;10.33;1.57;;;;;;;2.47;90.80;100118.28;4257334;28;21361;-74
2023/12/27 06:58:15;;;;;;;5.53;1.30;;;;;;;2.40;91.24;100116.13;4232588;28;25336;-76
2023/12/27 07:00:42;;;;;;;8.83;1.47;;;;;;;2.33;90.98;100111.22;4242214;28;21186;-75
2023/12/27 07:03:09;;;;;;;6.17;1.70;;;;;;;2.33;90.98;100126.34;4234210;28;22850;-73
2023/12/27 07:05:36;;;;;;;5.00;1.37;;;;;;;2.33;91.00;100134.38;4242992;28;20239;-70
2023/12/27 07:08:04;;;;;;;9.90;1.73;;;;;;;2.24;91.19;100133.19;4253726;28;20881;-72
2023/12/27 07:10:31;;;;;;;8.00;1.70;;;;;;;2.25;91.00;100142.91;4240780;28;20350;-77
2023/12/27 07:12:58;;;;;;;10.30;1.57;;;;;;;2.24;90.59;100149.22;4253520;28;20238;-73
2023/12/27 07:15:24;;;;;;;8.47;1.77;;;;;;;2.22;90.43;100143.09;4237760;28;20242;-72
2023/12/27 07:17:51;;;;;;;11.63;1.80;;;;;;;2.23;90.41;100155.50;4238134;28;20242;-74
2023/12/27 07:20:17;;;;;;;7.67;1.50;;;;;;;2.30;89.65;100163.97;4243547;28;20269;-75
2023/12/27 07:22:45;;;;;;;8.63;1.80;;;;;;;2.38;89.13;100167.84;4235438;28;20286;-74
2023/12/27 07:25:11;;;;;;;5.23;1.80;;;;;;;2.42;88.59;100173.00;4232948;28;20223;-73
2023/12/27 07:27:38;;;;;;;7.57;1.80;;;;;;;2.56;87.18;100188.09;4247250;28;20249;-72
2023/12/27 07:30:06;;;;;;;8.70;1.90;;;;;;;2.68;86.39;100190.81;4246050;28;21179;-72
2023/12/27 07:32:33;;;;;;;10.00;2.10;;;;;;;2.73;86.10;100197.66;4238357;28;20282;-72
2023/12/27 07:35:00;;;;;;;10.73;1.80;;;;;;;2.81;84.81;100206.00;4238015;28;21414;-75
2023/12/27 07:37:27;;;;;;;9.60;2.20;;;;;;;2.90;84.02;100209.91;4235625;28;20219;-76
2023/12/27 07:39:53;;;;;;;7.53;1.97;;;;;;;2.85;83.92;100219.06;4242680;28;20303;-74
2023/12/27 07:42:20;;;;;;;8.20;1.90;;;;;;;2.91;84.15;100220.47;4244406;28;20639;-69
2023/12/27 07:44:47;;;;;;;9.43;2.57;;;;;;;2.89;84.42;100232.25;4253563;28;21208;-74
2023/12/27 07:47:14;;;;;;;12.80;2.20;;;;;;;2.82;85.45;100218.44;4255165;28;20235;-77
2023/12/27 07:49:40;;;;;;;11.77;2.10;;;;;;;2.89;85.32;100221.56;4236681;28;22365;-71
2023/12/27 07:52:08;;;;;;;8.17;1.80;;;;;;;2.85;86.35;100227.09;4250623;28;20301;-70
2023/12/27 07:54:37;;;;;;;8.67;2.17;;;;;;;2.94;86.46;100241.69;4248404;28;21089;-75
2023/12/27 07:57:04;;;;;;;8.53;1.83;;;;;;;2.85;87.16;100247.63;4247116;28;20510;-75
2023/12/27 07:59:31;;;;;;;7.40;1.87;;;;;;;2.86;87.68;100246.69;4248790;28;21057;-74
2023/12/27 08:01:58;;;;;;;6.60;1.60;;;;;;;2.95;87.78;100251.38;4240732;28;20240;-74
2023/12/27 08:04:24;;;;;;;10.37;1.70;;;;;;;2.94;87.80;100255.06;4246074;28;20557;-73
2023/12/27 08:06:52;;;;;;;10.10;1.70;;;;;;;3.02;87.80;100259.88;4245718;28;21146;-73
2023/12/27 08:09:18;;;;;;;6.70;1.70;;;;;;;2.92;88.42;100264.97;4241471;28;20231;-75
2023/12/27 08:11:45;;;;;;;15.80;2.20;;;;;;;2.93;89.15;100277.41;4233755;28;23033;-74
2023/12/27 08:14:12;;;;;;;12.10;2.10;;;;;;;2.88;89.58;100284.00;4235914;28;20239;-75
2023/12/27 08:16:38;;;;;;;9.53;2.00;;;;;;;2.95;89.01;100286.16;4228091;28;22356;-73
2023/12/27 08:19:06;;;;;;;12.82;2.70;;;;;;;2.96;88.64;100293.22;4235394;28;20850;-71
2023/12/27 08:21:32;;;;;;;11.40;2.03;;;;;;;3.03;88.71;100301.69;4232410;28;20695;-79
2023/12/27 08:23:59;;;;;;;14.00;2.30;;;;;;;3.05;88.48;100307.81;4238001;28;20255;-73
2023/12/27 08:26:26;;;;;;;11.87;2.00;;;;;;;3.01;88.97;100312.50;4238374;28;20281;-74
2023/12/27 08:28:52;;;;;;;12.73;2.00;;;;;;;3.12;87.91;100313.59;4235979;28;20610;-74
2023/12/27 08:31:20;;;;;;;11.93;2.37;;;;;;;3.03;88.82;100324.91;4221358;28;20421;-70
2023/12/27 08:33:50;;;;;;;9.55;1.92;;;;;;;3.00;88.81;100321.50;4229971;28;20403;-73
2023/12/27 08:36:17;;;;;;;7.67;2.10;;;;;;;3.03;88.97;100333.78;4237316;28;22084;-74
2023/12/27 08:38:44;;;;;;;13.23;3.03;;;;;;;3.01;88.71;100335.69;4239332;28;20431;-70
2023/12/27 08:41:10;;;;;;;12.03;2.30;;;;;;;3.08;88.21;100345.03;4240217;28;20227;-75
2023/12/27 08:43:37;;;;;;;7.00;2.17;;;;;;;3.07;88.23;100347.81;4233433;28;20238;-74
2023/12/27 08:46:09;;;;;;;15.57;2.87;;;;;;;3.04;88.72;100354.22;4243896;28;20258;-76
2023/12/27 08:48:35;;;;;;;10.67;2.53;;;;;;;3.05;88.56;100355.06;4240346;28;20235;-74
2023/12/27 08:51:02;;;;;;;14.03;2.50;;;;;;;3.04;88.89;100362.25;4253270;28;20237;-74
2023/12/27 08:53:29;;;;;;;10.13;2.43;;;;;;;2.95;89.10;100362.84;4245719;28;20235;-74
2023/12/27 08:55:56;;;;;;;17.83;2.70;;;;;;;3.05;88.62;100369.31;4255214;28;20230;-78
2023/12/27 08:58:23;;;;;;;14.83;2.87;;;;;;;3.01;89.12;100374.03;4229111;28;20242;-72
2023/12/27 09:00:49;;;;;;;12.50;3.00;;;;;;;2.97;88.97;100377.00;4247814;28;20245;-74
2023/12/27 09:03:16;;;;;;;11.43;2.40;;;;;;;3.05;88.89;100385.38;4242706;28;23530;-77
2023/12/27 09:05:43;;;;;;;13.33;2.60;;;;;;;3.16;88.52;100387.34;4236146;28;22529;-73
2023/12/27 09:08:10;;;;;;;10.03;2.80;;;;;;;3.05;89.13;100389.84;4233903;28;20231;-75
2023/12/27 09:10:37;;;;;;;14.03;3.10;;;;;;;3.19;88.61;100388.94;4241335;28;20289;-71
2023/12/27 09:13:03;;;;;;;7.10;1.97;;;;;;;3.19;88.96;100403.16;4245809;28;20446;-73
2023/12/27 09:15:30;;;;;;;15.50;2.30;;;;;;;3.14;89.04;100407.97;4251236;28;25422;-74
2023/12/27 09:17:57;;;;;;;13.10;2.60;;;;;;;3.22;88.75;100411.00;4237357;28;21336;-75
2023/12/27 09:20:24;;;;;;;9.00;2.30;;;;;;;3.16;89.30;100403.38;4251207;28;20246;-76
2023/12/27 09:22:51;;;;;;;16.00;3.17;;;;;;;3.25;88.88;100397.41;4246164;28;21301;-72
2023/12/27 09:25:18;;;;;;;11.50;2.37;;;;;;;3.29;88.91;100408.75;4236806;28;20339;-76
2023/12/27 09:27:46;;;;;;;7.20;2.27;;;;;;;3.39;88.55;100404.53;4247908;28;20241;-74
2023/12/27 09:30:13;;;;;;;10.77;2.47;;;;;;;3.52;87.90;100406.38;4257468;28;20235;-76
2023/12/27 09:32:42;;;;;;;13.60;2.70;;;;;;;3.64;86.92;100408.25;4239761;28;20238;-77
2023/12/27 09:35:09;;;;;;;15.18;3.10;;;;;;;3.46;87.46;100413.03;4255079;28;25131;-76
2023/12/27 09:37:37;;;;;;;12.83;2.23;;;;;;;3.45;87.41;100412.16;4257464;28;20256;-75
2023/12/27 09:40:05;;;;;;;12.73;2.60;;;;;;;3.63;86.68;100404.69;4261816;28;20226;-75
2023/12/27 09:42:35;;;;;;;14.10;2.53;;;;;;;3.67;86.17;100420.56;4242673;28;20317;-76
2023/12/27 09:45:04;;;;;;;11.07;2.53;;;;;;;3.70;86.13;100418.53;4257556;28;20284;-72
2023/12/27 09:47:37;;;;;;;9.40;2.47;;;;;;;4.38;82.33;100424.59;4249254;28;20292;-76
2023/12/27 09:50:05;;;;;;;14.23;2.80;;;;;;;4.12;83.29;100413.88;4244648;28;22714;-75
2023/12/27 09:52:33;;;;;;;13.07;2.00;;;;;;;4.51;81.67;100424.59;4276750;28;21702;-76
2023/12/27 09:55:01;;;;;;;12.27;2.40;;;;;;;4.18;82.29;100420.63;4235862;28;20289;-74
2023/12/27 09:57:29;;;;;;;9.73;2.37;;;;;;;4.31;84.93;100419.78;4242688;28;20554;-65
2023/12/27 09:59:58;;;;;;;12.23;2.67;;;;;;;4.27;84.65;100409.28;4241872;28;20236;-66
2023/12/27 10:02:28;;;;;;;10.70;2.83;;;;;;;4.20;84.81;100417.84;4246765;28;20243;-72
2023/12/27 10:05:15;;;;;;;14.17;3.43;;;;;;;3.85;84.61;100416.66;4253786;28;20230;-69
2023/12/27 10:07:42;;;;;;;17.53;2.77;;;;;;;3.86;85.08;100421.03;4236242;28;21303;-71
2023/12/27 10:10:09;;;;;;;21.20;3.00;;;;;;;3.84;84.43;100436.38;4247798;28;20243;-71
2023/12/27 10:12:51;;;;;;;9.67;2.00;;;;;;;3.86;84.27;100426.38;4255116;28;20230;-70
2023/12/27 10:15:17;;;;;;;16.57;2.50;;;;;;;3.92;82.58;100430.47;4241729;28;20311;-71
2023/12/27 10:17:44;;;;;;;11.83;2.63;;;;;;;3.89;83.52;100431.53;4244073;28;25485;-72
2023/12/27 10:20:30;;;;;;;12.97;2.77;;;;;;;3.83;83.80;100431.09;4235271;28;22391;-68
2023/12/27 10:22:58;;;;;;;15.90;2.80;;;;;;;4.06;83.47;100440.25;4243196;28;20239;-71
2023/12/27 10:25:28;;;;;;;12.30;2.53;;;;;;;4.44;82.03;100428.69;4251412;28;20420;-71
2023/12/27 10:27:56;;;;;;;7.33;2.40;;;;;;;4.16;83.18;100422.56;4239451;28;20241;-70
2023/12/27 10:30:23;;;;;;;16.37;3.10;;;;;;;3.91;84.12;100431.44;4233049;28;20847;-69
2023/12/27 10:32:59;;;;;;;12.03;2.77;;;;;;;3.92;84.19;100434.03;4241709;28;20383;-69
2023/12/27 10:35:27;;;;;;;10.13;2.77;;;;;;;3.97;84.13;100442.59;4239438;28;20236;-70
2023/12/27 10:37:58;;;;;;;16.37;3.97;;;;;;;3.97;83.99;100426.53;4244162;28;20222;-70
2023/12/27 10:40:25;;;;;;;15.40;2.90;;;;;;;3.91;83.06;100443.00;4235978;28;20242;-70
2023/12/27 10:42:52;;;;;;;14.50;2.80;;;;;;;4.13;83.16;100437.03;4241113;28;22061;-73
2023/12/27 10:45:21;;;;;;;10.70;2.40;;;;;;;4.49;79.40;100447.13;4240098;28;23614;-72
2023/12/27 10:47:49;;;;;;;12.03;2.43;;;;;;;4.29;79.53;100435.97;4247201;28;20231;-71
2023/12/27 10:50:19;;;;;;;7.73;2.80;;;;;;;4.30;79.91;100448.41;4266289;28;20238;-70
2023/12/27 10:52:59;;;;;;;12.85;2.70;;;;;;;4.33;80.27;100450.88;4244697;28;20750;-72
2023/12/27 10:55:28;;;;;;;10.67;2.40;;;;;;;4.37;80.00;100456.88;4254594;28;20230;-69
2023/12/27 10:57:56;;;;;;;11.07;2.53;;;;;;;4.24;80.20;100449.69;4245022;28;21129;-69
2023/12/27 11:00:24;;;;;;;10.97;2.40;;;;;;;4.23;79.30;100449.78;4236406;28;20404;-71
2023/12/27 11:02:52;;;;;;;11.60;2.00;;;;;;;4.11;78.74;100441.66;4231621;28;20405;-72
2023/12/27 11:05:24;;;;;;;9.27;2.30;;;;;;;4.16;79.45;100445.81;4243429;28;20531;-71
2023/12/27 11:07:54;;;;;;;15.53;2.77;;;;;;;4.16;80.39;100452.03;4242285;28;21833;-71
2023/12/27 11:10:23;;;;;;;12.17;2.60;;;;;;;4.12;80.03;100463.94;4241228;28;20279;-71
2023/12/27 11:12:50;;;;;;;12.90;2.60;;;;;;;4.08;80.44;100451.69;4237765;28;20231;-70
2023/12/27 11:15:20;;;;;;;12.13;2.43;;;;;;;4.09;78.47;100456.97;4243365;28;20226;-70
2023/12/27 11:17:49;;;;;;;9.73;2.30;;;;;;;4.14;79.27;100459.34;4230597;28;20238;-70
2023/12/27 11:20:20;;;;;;;13.53;2.67;;;;;;;4.19;78.63;100467.91;4234569;28;20367;-70
2023/12/27 11:22:47;;;;;;;14.57;2.97;;;;;;;4.26;78.17;100473.72;4234698;28;25441;-69
2023/12/27 11:25:14;;;;;;;12.93;2.87;;;;;;;4.26;78.94;100469.19;4239826;28;20232;-70
2023/12/27 11:27:43;;;;;;;7.67;2.13;;;;;;;4.19;79.57;100467.91;4233418;28;20481;-70
2023/12/27 11:30:12;;;;;;;8.63;2.50;;;;;;;4.16;79.67;100472.63;4233271;28;20227;-70
2023/12/27 11:32:41;;;;;;;9.37;2.17;;;;;;;4.31;77.88;100478.72;4236997;28;20310;-70
2023/12/27 11:35:27;;;;;;;12.43;2.73;;;;;;;4.26;76.34;100466.53;4239014;28;22887;-70